createdAt,value
2018-03-06T00:01:10.111Z,1.60
2018-03-06T00:05:13.518Z,1.60
2018-03-06T00:09:16.908Z,1.60
2018-03-06T00:13:20.321Z,1.60
2018-03-06T00:17:23.703Z,1.70
2018-03-06T00:21:27.472Z,1.70
2018-03-06T00:25:31.672Z,1.70
2018-03-06T00:29:35.030Z,1.70
2018-03-06T00:33:38.397Z,1.70
2018-03-06T00:37:41.826Z,1.60
2018-03-06T00:41:45.958Z,1.70
2018-03-06T00:45:49.342Z,1.70
2018-03-06T00:49:53.699Z,1.60
2018-03-06T00:53:57.105Z,1.60
2018-03-06T00:58:00.543Z,1.50
2018-03-06T01:02:03.929Z,1.40
2018-03-06T01:06:07.311Z,1.40
2018-03-06T01:10:10.831Z,1.40
2018-03-06T01:14:14.234Z,1.50
2018-03-06T01:18:17.635Z,1.50
2018-03-06T01:22:21.339Z,1.60
2018-03-06T01:26:25.508Z,1.40
2018-03-06T01:30:28.906Z,1.40
2018-03-06T01:34:32.274Z,1.40
2018-03-06T01:38:36.697Z,1.50
2018-03-06T01:42:40.846Z,1.50
2018-03-06T01:46:44.304Z,1.50
2018-03-06T01:50:48.456Z,1.30
2018-03-06T01:54:52.581Z,1.30
2018-03-06T01:58:56.759Z,1.40
2018-03-06T02:03:00.148Z,1.40
2018-03-06T02:07:03.560Z,1.50
2018-03-06T02:11:06.943Z,1.60
2018-03-06T02:15:10.350Z,1.50
2018-03-06T02:19:13.744Z,1.40
2018-03-06T02:23:17.881Z,1.20
2018-03-06T02:27:21.284Z,1.10
2018-03-06T02:31:24.784Z,1.20
2018-03-06T02:35:28.918Z,1.10
2018-03-06T02:39:32.326Z,1.00
2018-03-06T02:43:35.713Z,1.20
2018-03-06T02:47:39.894Z,1.20
2018-03-06T02:51:43.314Z,1.20
2018-03-06T02:55:46.704Z,1.10
2018-03-06T02:59:50.130Z,1.20
2018-03-06T03:03:53.519Z,1.10
2018-03-06T03:07:56.926Z,1.10
2018-03-06T03:12:00.417Z,1.10
2018-03-06T03:16:03.841Z,1.00
2018-03-06T03:20:07.324Z,1.00
2018-03-06T03:24:10.715Z,1.20
2018-03-06T03:28:14.092Z,1.00
2018-03-06T03:32:18.245Z,1.20
2018-03-06T03:36:21.616Z,1.20
2018-03-06T03:40:24.995Z,1.20
2018-03-06T03:44:29.562Z,1.00
2018-03-06T03:48:33.693Z,1.10
2018-03-06T03:52:37.821Z,1.00
2018-03-06T03:56:41.949Z,1.00
2018-03-06T04:00:45.354Z,1.00
2018-03-06T04:04:48.720Z,1.00
2018-03-06T04:08:52.139Z,1.20
2018-03-06T04:12:57.025Z,1.10
2018-03-06T04:17:00.550Z,1.10
2018-03-06T04:21:03.928Z,1.20
2018-03-06T04:25:07.317Z,1.10
2018-03-06T04:29:11.450Z,1.10
2018-03-06T04:33:15.571Z,1.10
2018-03-06T04:37:19.727Z,1.20
2018-03-06T04:41:23.102Z,1.20
2018-03-06T04:45:27.337Z,1.00
2018-03-06T04:49:30.721Z,1.00
2018-03-06T04:53:34.887Z,1.10
2018-03-06T04:57:38.283Z,1.10
2018-03-06T05:01:41.659Z,1.10
2018-03-06T05:05:45.795Z,1.00
2018-03-06T05:09:50.060Z,1.20
2018-03-06T05:13:53.454Z,1.20
2018-03-06T05:17:56.825Z,1.20
2018-03-06T05:22:00.983Z,1.10
2018-03-06T05:26:04.522Z,1.10
2018-03-06T05:30:07.994Z,1.00
2018-03-06T05:34:11.444Z,1.00
2018-03-06T05:38:14.817Z,1.10
2018-03-06T05:42:18.209Z,1.00
2018-03-06T05:46:21.594Z,1.10
2018-03-06T05:50:25.750Z,1.20
2018-03-06T05:54:29.189Z,1.30
2018-03-06T05:58:32.618Z,1.10
2018-03-06T06:02:36.792Z,1.20
2018-03-06T06:06:40.180Z,1.20
2018-03-06T06:10:43.553Z,1.10
2018-03-06T06:14:46.951Z,1.30
2018-03-06T06:18:50.521Z,1.30
2018-03-06T06:22:53.886Z,1.20
2018-03-06T06:26:57.382Z,1.20
2018-03-06T06:31:00.821Z,1.30
2018-03-06T06:35:05.106Z,1.50
2018-03-06T06:39:08.482Z,1.50
2018-03-06T06:43:11.841Z,1.60
2018-03-06T06:47:15.985Z,1.60
2018-03-06T06:51:20.129Z,1.60
2018-03-06T06:55:23.476Z,1.60
2018-03-06T06:59:26.920Z,1.60
2018-03-06T07:03:31.067Z,1.90
2018-03-06T07:07:34.450Z,1.80
2018-03-06T07:11:38.571Z,1.90
2018-03-06T07:15:42.769Z,2.10
2018-03-06T07:19:46.123Z,2.10
2018-03-06T07:23:49.478Z,2.20
2018-03-06T07:27:52.990Z,2.10
2018-03-06T07:31:56.384Z,2.00
2018-03-06T07:35:59.746Z,2.10
2018-03-06T07:40:04.640Z,2.10
2018-03-06T07:44:08.059Z,2.30
2018-03-06T07:48:11.410Z,2.20
2018-03-06T07:52:14.823Z,2.40
2018-03-06T07:56:18.329Z,2.60
2018-03-06T08:00:21.703Z,2.60
2018-03-06T08:04:25.826Z,2.40
2018-03-06T08:08:30.242Z,2.70
2018-03-06T08:12:34.385Z,2.90
2018-03-06T08:16:37.763Z,2.90
2018-03-06T08:20:41.896Z,3.30
2018-03-06T08:24:46.094Z,3.50
2018-03-06T08:28:49.494Z,3.60
2018-03-06T08:32:53.869Z,3.90
2018-03-06T08:36:58.047Z,4.10
2018-03-06T08:41:01.490Z,4.10
2018-03-06T08:45:05.601Z,4.70
2018-03-06T08:49:08.967Z,4.60
2018-03-06T08:53:12.332Z,4.70
2018-03-06T08:57:16.495Z,4.70
2018-03-06T09:01:19.870Z,4.70
2018-03-06T09:05:23.242Z,4.80
2018-03-06T09:09:26.555Z,4.80
2018-03-06T09:13:29.904Z,4.70
2018-03-06T09:17:33.283Z,4.70
2018-03-06T09:21:37.430Z,4.90
2018-03-06T09:25:40.842Z,4.90
2018-03-06T09:29:44.209Z,5.10
2018-03-06T09:33:48.453Z,5.40
2018-03-06T09:37:51.831Z,5.40
2018-03-06T09:41:55.230Z,5.50
2018-03-06T09:45:58.590Z,5.60
2018-03-06T09:50:02.070Z,5.30
2018-03-06T09:54:06.254Z,5.10
2018-03-06T09:58:09.604Z,5.00
2018-03-06T10:02:13.764Z,5.10
2018-03-06T10:06:17.121Z,5.10
2018-03-06T10:10:21.257Z,5.20
2018-03-06T10:14:25.373Z,5.20
2018-03-06T10:18:29.560Z,5.20
2018-03-06T10:22:32.929Z,5.20
2018-03-06T10:26:36.356Z,5.40
2018-03-06T10:30:39.717Z,5.30
2018-03-06T10:34:43.854Z,5.10
2018-03-06T10:38:47.243Z,5.10
2018-03-06T10:42:51.406Z,5.20
2018-03-06T10:46:54.862Z,5.20
2018-03-06T10:50:58.232Z,5.30
2018-03-06T10:55:01.607Z,5.40
2018-03-06T10:59:05.124Z,5.50
2018-03-06T11:03:08.494Z,5.40
2018-03-06T11:07:12.700Z,5.30
2018-03-06T11:11:16.066Z,5.30
2018-03-06T11:15:19.413Z,5.40
2018-03-06T11:19:22.772Z,5.40
2018-03-06T11:23:26.146Z,5.50
2018-03-06T11:27:30.296Z,5.30
2018-03-06T11:31:33.648Z,5.30
2018-03-06T11:35:37.015Z,5.20
2018-03-06T11:39:40.391Z,5.10
2018-03-06T11:43:44.647Z,5.20
2018-03-06T11:47:48.008Z,5.10
2018-03-06T11:51:52.126Z,5.10
2018-03-06T11:55:55.698Z,5.10
2018-03-06T11:59:59.062Z,5.20
2018-03-06T12:04:03.432Z,5.50
2018-03-06T12:08:06.808Z,5.50
2018-03-06T12:12:10.205Z,5.50
2018-03-06T12:16:14.416Z,5.30
2018-03-06T12:20:17.778Z,5.30
2018-03-06T12:24:21.433Z,5.40
2018-03-06T12:28:25.528Z,5.50
2018-03-06T12:32:29.076Z,5.50
2018-03-06T12:36:33.227Z,5.50
2018-03-06T12:40:36.616Z,5.40
2018-03-06T12:44:39.989Z,5.50
2018-03-06T12:48:43.410Z,5.40
2018-03-06T12:52:47.525Z,5.30
2018-03-06T12:56:50.905Z,5.30
2018-03-06T13:00:54.284Z,5.30
2018-03-06T13:04:57.671Z,5.30
2018-03-06T13:09:01.414Z,5.50
2018-03-06T13:13:04.916Z,5.40
2018-03-06T13:17:08.270Z,5.40
2018-03-06T13:21:11.688Z,5.40
2018-03-06T13:25:15.833Z,5.40
2018-03-06T13:29:19.207Z,5.40
2018-03-06T13:33:22.582Z,5.30
2018-03-06T13:37:25.958Z,5.50
2018-03-06T13:41:29.333Z,5.40
2018-03-06T13:45:33.481Z,5.20
2018-03-06T13:49:36.846Z,5.20
2018-03-06T13:53:40.201Z,5.20
2018-03-06T13:57:43.575Z,5.30
2018-03-06T14:01:47.691Z,5.10
2018-03-06T14:05:51.847Z,5.10
2018-03-06T14:09:55.338Z,5.10
2018-03-06T14:13:59.486Z,5.30
2018-03-06T14:18:02.928Z,5.30
2018-03-06T14:22:06.338Z,5.20
2018-03-06T14:26:09.784Z,5.20
2018-03-06T14:30:13.994Z,5.30
2018-03-06T14:34:18.135Z,5.20
2018-03-06T14:38:22.307Z,5.30
2018-03-06T14:42:25.690Z,5.30
2018-03-06T14:46:29.286Z,5.10
2018-03-06T14:50:33.532Z,5.00
2018-03-06T14:54:37.012Z,4.90
2018-03-06T14:58:40.423Z,4.80
2018-03-06T15:02:43.818Z,4.70
2018-03-06T15:06:47.972Z,4.60
2018-03-06T15:10:51.354Z,4.50
2018-03-06T15:14:55.497Z,4.30
2018-03-06T15:18:58.974Z,4.30
2018-03-06T15:23:03.153Z,4.10
2018-03-06T15:27:06.510Z,4.10
2018-03-06T15:31:09.913Z,4.10
2018-03-06T15:35:14.044Z,4.30
2018-03-06T15:39:18.228Z,4.40
2018-03-06T15:43:21.560Z,4.40
2018-03-06T15:47:25.719Z,4.50
2018-03-06T15:51:29.093Z,4.40
2018-03-06T15:55:33.254Z,4.60
2018-03-06T15:59:36.647Z,4.60
2018-03-06T16:03:40.019Z,4.50
2018-03-06T16:07:43.406Z,4.50
2018-03-06T16:11:46.819Z,4.20
2018-03-06T16:15:50.403Z,4.10
2018-03-06T16:19:53.766Z,4.10
2018-03-06T16:23:58.079Z,3.90
2018-03-06T16:28:02.218Z,4.00
2018-03-06T16:32:06.351Z,4.10
2018-03-06T16:36:09.728Z,4.10
2018-03-06T16:40:13.102Z,4.20
2018-03-06T16:44:16.593Z,4.20
2018-03-06T16:48:20.030Z,4.00
2018-03-06T16:52:23.509Z,3.80
2018-03-06T16:56:26.895Z,3.60
2018-03-06T17:00:30.294Z,3.50
2018-03-06T17:04:33.693Z,3.40
2018-03-06T17:08:37.186Z,3.30
2018-03-06T17:12:41.355Z,3.10
2018-03-06T17:16:44.738Z,3.10
2018-03-06T17:20:48.127Z,3.00
2018-03-06T17:24:52.485Z,2.90
2018-03-06T17:28:55.860Z,2.90
2018-03-06T17:33:00.023Z,2.90
2018-03-06T17:37:03.427Z,2.80
2018-03-06T17:41:06.849Z,2.80
2018-03-06T17:45:10.235Z,2.80
2018-03-06T17:49:13.626Z,2.80
2018-03-06T17:53:16.990Z,2.90
2018-03-06T17:57:20.348Z,2.90
2018-03-06T18:01:23.768Z,2.90
2018-03-06T18:05:27.164Z,2.80
2018-03-06T18:09:30.558Z,2.90
2018-03-06T18:13:33.957Z,2.70
2018-03-06T18:17:38.122Z,2.80
2018-03-06T18:21:41.582Z,2.80
2018-03-06T18:25:45.817Z,2.70
2018-03-06T18:29:49.950Z,2.70
2018-03-06T18:33:53.344Z,2.70
2018-03-06T18:37:57.585Z,2.70
2018-03-06T18:42:00.999Z,2.60
2018-03-06T18:46:04.400Z,2.60
2018-03-06T18:54:45.511Z,3.10
2018-03-06T18:58:48.882Z,2.50
2018-03-06T19:03:10.500Z,2.50
2018-03-06T19:07:13.934Z,2.50
2018-03-06T19:11:18.128Z,2.40
2018-03-06T19:15:21.676Z,2.40
2018-03-06T19:19:25.827Z,2.30
2018-03-06T19:23:29.228Z,2.30
2018-03-06T19:27:32.625Z,2.30
2018-03-06T19:31:36.037Z,2.30
2018-03-06T19:35:39.461Z,2.20
2018-03-06T19:39:42.874Z,2.30
2018-03-06T19:43:46.255Z,2.30
2018-03-06T19:47:49.657Z,2.30
2018-03-06T19:51:53.028Z,2.20
2018-03-06T19:55:56.456Z,2.20
2018-03-06T20:00:00.745Z,2.20
2018-03-06T20:04:04.157Z,2.20
2018-03-06T20:08:07.604Z,2.10
2018-03-06T20:12:11.202Z,2.00
2018-03-06T20:16:15.356Z,2.10
2018-03-06T20:20:18.753Z,2.10
2018-03-06T20:24:27.823Z,2.00
2018-03-06T20:28:31.740Z,2.10
2018-03-06T20:32:40.996Z,2.00
2018-03-06T20:36:44.463Z,2.00
2018-03-06T20:40:47.939Z,1.90
2018-03-06T20:44:52.124Z,1.80
2018-03-06T20:48:55.487Z,1.80
2018-03-06T20:53:04.383Z,1.70
2018-03-06T20:57:10.066Z,1.80
2018-03-06T21:01:14.238Z,1.80
2018-03-06T21:05:17.631Z,1.80
2018-03-06T21:09:21.050Z,2.00
2018-03-06T21:13:24.456Z,1.90
2018-03-06T21:17:27.849Z,1.70
2018-03-06T21:21:31.319Z,1.80
2018-03-06T21:25:34.723Z,1.70
2018-03-06T21:29:38.115Z,1.60
2018-03-06T21:33:41.481Z,1.60
2018-03-06T21:37:44.854Z,1.60
2018-03-06T21:41:48.282Z,1.60
2018-03-06T21:45:51.682Z,1.70
2018-03-06T21:49:55.935Z,1.50
2018-03-06T21:53:59.318Z,1.50
2018-03-06T21:58:03.501Z,1.40
2018-03-06T22:02:06.871Z,1.40
2018-03-06T22:06:10.260Z,1.50
2018-03-06T22:10:13.866Z,1.40
2018-03-06T22:14:18.004Z,1.50
2018-03-06T22:18:21.696Z,1.50
2018-03-06T22:22:25.947Z,1.60
2018-03-06T22:26:29.334Z,1.60
2018-03-06T22:30:32.740Z,1.60
2018-03-06T22:34:36.113Z,1.60
2018-03-06T22:38:39.547Z,1.70
2018-03-06T22:42:42.954Z,1.60
2018-03-06T22:46:47.100Z,1.60
2018-03-06T22:50:50.453Z,1.60
2018-03-06T22:54:53.964Z,1.60
2018-03-06T22:58:57.354Z,1.70
2018-03-06T23:03:00.734Z,1.60
2018-03-06T23:07:04.116Z,1.60
2018-03-06T23:11:08.271Z,1.60
2018-03-06T23:15:11.651Z,1.50
2018-03-06T23:19:15.033Z,1.60
2018-03-06T23:23:18.476Z,1.60
2018-03-06T23:27:21.838Z,1.40
2018-03-06T23:31:25.205Z,1.40
2018-03-06T23:35:28.576Z,1.50
2018-03-06T23:39:32.191Z,1.60
2018-03-06T23:43:35.587Z,1.50
2018-03-06T23:47:39.803Z,1.50
2018-03-06T23:51:44.010Z,1.60
2018-03-06T23:55:47.378Z,1.60
2018-03-06T23:59:50.728Z,1.40
